KBAD/BAD METAR and TAF weather

Enter ICAO airport designator
Station Type Date Time Source
KBAD METAR 2020/06/06 12:56 UTC NOAA

KBAD 061256Z AUTO 00000KT 10SM CLR 24/23 A2993 RMK AO2 SLP136 T02350233


Station Type Date Time Source
KBAD Decoded METAR 2020/06/06 12:56 UTC NOAA

Barksdale Air Force Base, LA, United States (KBAD) 32-30N 093-40W
Jun 06, 2020 - 08:56 AM EDT / 2020.06.06 1256 UTC
Wind: Calm:0
Visibility: 10 mile(s):0
Sky conditions: clear
Temperature: 74.3 F (23.5 C)
Dew Point: 73.9 F (23.3 C)
Relative Humidity: 98%
Pressure (altimeter): 29.93 in. Hg (1013 hPa)
ob: KBAD 061256Z AUTO 00000KT 10SM CLR 24/23 A2993 RMK AO2 SLP136 T02350233
cycle: 13

Station Type Date Time Source
KBAD TAF 2020/06/06 11:33 UTC NOAA

TAF TAF
AMD KBAD 061129Z 0611/0716 02004KT 9999 SCT100 BKN250 QNH2991INS
BECMG 0619/0620 04010G18KT 9999 SCT150 BKN250 QNH2980INS
BECMG 0700/0701 03008KT 9999 SCT200 QNH2974INS TX32/0621Z TN21/0611Z

Example: see airport list